sensor_id;sensor_type;location;lat;lon;timestamp;P1;durP1;ratioP1;P2;durP2;ratioP2
55067;SDS011;40965;52.368;9.712;2022-07-23T00:01:36;7.03;;;6.18;;
55067;SDS011;40965;52.368;9.712;2022-07-23T00:04:03;6.57;;;5.97;;
55067;SDS011;40965;52.368;9.712;2022-07-23T00:06:30;7.63;;;5.70;;
55067;SDS011;40965;52.368;9.712;2022-07-23T00:08:57;6.60;;;5.75;;
55067;SDS011;40965;52.368;9.712;2022-07-23T00:11:32;8.60;;;5.70;;
55067;SDS011;40965;52.368;9.712;2022-07-23T00:13:59;7.07;;;4.32;;
55067;SDS011;40965;52.368;9.712;2022-07-23T00:16:25;5.07;;;4.57;;
55067;SDS011;40965;52.368;9.712;2022-07-23T00:18:54;6.43;;;4.20;;
55067;SDS011;40965;52.368;9.712;2022-07-23T00:21:21;5.28;;;4.80;;
55067;SDS011;40965;52.368;9.712;2022-07-23T00:23:50;10.52;;;6.55;;
55067;SDS011;40965;52.368;9.712;2022-07-23T00:26:17;5.78;;;4.78;;
55067;SDS011;40965;52.368;9.712;2022-07-23T00:28:45;6.68;;;5.97;;
55067;SDS011;40965;52.368;9.712;2022-07-23T00:31:12;10.70;;;5.72;;
55067;SDS011;40965;52.368;9.712;2022-07-23T00:33:39;4.35;;;4.03;;
55067;SDS011;40965;52.368;9.712;2022-07-23T00:36:06;8.65;;;5.75;;
55067;SDS011;40965;52.368;9.712;2022-07-23T00:38:33;5.28;;;4.78;;
55067;SDS011;40965;52.368;9.712;2022-07-23T00:41:00;5.88;;;4.57;;
55067;SDS011;40965;52.368;9.712;2022-07-23T00:43:27;7.65;;;5.28;;
55067;SDS011;40965;52.368;9.712;2022-07-23T00:45:53;7.57;;;5.85;;
55067;SDS011;40965;52.368;9.712;2022-07-23T00:48:20;7.47;;;6.78;;
55067;SDS011;40965;52.368;9.712;2022-07-23T00:50:47;6.15;;;5.55;;
55067;SDS011;40965;52.368;9.712;2022-07-23T00:53:13;8.13;;;5.13;;
55067;SDS011;40965;52.368;9.712;2022-07-23T00:55:41;6.25;;;4.97;;
55067;SDS011;40965;52.368;9.712;2022-07-23T00:58:08;9.15;;;5.18;;
55067;SDS011;40965;52.368;9.712;2022-07-23T01:00:39;8.35;;;5.40;;
55067;SDS011;40965;52.368;9.712;2022-07-23T01:03:05;9.18;;;5.35;;
55067;SDS011;40965;52.368;9.712;2022-07-23T01:05:32;10.18;;;6.00;;
55067;SDS011;40965;52.368;9.712;2022-07-23T01:07:59;10.23;;;6.15;;
55067;SDS011;40965;52.368;9.712;2022-07-23T01:10:27;7.72;;;6.88;;
55067;SDS011;40965;52.368;9.712;2022-07-23T01:13:07;9.00;;;5.53;;
55067;SDS011;40965;52.368;9.712;2022-07-23T01:15:40;12.15;;;6.90;;
55067;SDS011;40965;52.368;9.712;2022-07-23T01:18:07;10.85;;;7.72;;
55067;SDS011;40965;52.368;9.712;2022-07-23T01:20:34;9.85;;;6.65;;
55067;SDS011;40965;52.368;9.712;2022-07-23T01:23:01;20.83;;;8.63;;
55067;SDS011;40965;52.368;9.712;2022-07-23T01:25:28;16.95;;;8.25;;
55067;SDS011;40965;52.368;9.712;2022-07-23T01:27:55;10.30;;;6.53;;
55067;SDS011;40965;52.368;9.712;2022-07-23T01:30:21;9.45;;;6.68;;
55067;SDS011;40965;52.368;9.712;2022-07-23T01:32:48;6.63;;;5.93;;
55067;SDS011;40965;52.368;9.712;2022-07-23T01:35:15;13.98;;;7.45;;
55067;SDS011;40965;52.368;9.712;2022-07-23T01:37:41;11.48;;;7.68;;
55067;SDS011;40965;52.368;9.712;2022-07-23T01:40:08;12.25;;;7.97;;
55067;SDS011;40965;52.368;9.712;2022-07-23T01:42:35;15.50;;;7.30;;
55067;SDS011;40965;52.368;9.712;2022-07-23T01:45:02;22.98;;;9.45;;
55067;SDS011;40965;52.368;9.712;2022-07-23T01:47:31;15.15;;;7.70;;
55067;SDS011;40965;52.368;9.712;2022-07-23T01:49:58;12.75;;;7.47;;
55067;SDS011;40965;52.368;9.712;2022-07-23T01:52:27;25.60;;;11.32;;
55067;SDS011;40965;52.368;9.712;2022-07-23T01:54:53;15.40;;;9.30;;
55067;SDS011;40965;52.368;9.712;2022-07-23T01:57:20;15.23;;;9.43;;
55067;SDS011;40965;52.368;9.712;2022-07-23T01:59:47;22.25;;;10.25;;
55067;SDS011;40965;52.368;9.712;2022-07-23T02:02:14;23.15;;;10.05;;
55067;SDS011;40965;52.368;9.712;2022-07-23T02:04:41;23.75;;;11.93;;
55067;SDS011;40965;52.368;9.712;2022-07-23T02:07:07;16.55;;;10.70;;
55067;SDS011;40965;52.368;9.712;2022-07-23T02:09:34;20.92;;;10.68;;
55067;SDS011;40965;52.368;9.712;2022-07-23T02:12:03;19.10;;;10.20;;
55067;SDS011;40965;52.368;9.712;2022-07-23T02:14:30;18.20;;;9.27;;
55067;SDS011;40965;52.368;9.712;2022-07-23T02:16:56;14.90;;;8.73;;
55067;SDS011;40965;52.368;9.712;2022-07-23T02:19:23;11.35;;;8.50;;
55067;SDS011;40965;52.368;9.712;2022-07-23T02:21:50;11.77;;;8.13;;
55067;SDS011;40965;52.368;9.712;2022-07-23T02:24:20;11.82;;;8.93;;
55067;SDS011;40965;52.368;9.712;2022-07-23T02:26:47;14.10;;;7.78;;
55067;SDS011;40965;52.368;9.712;2022-07-23T02:29:14;14.93;;;7.82;;
55067;SDS011;40965;52.368;9.712;2022-07-23T02:31:40;15.43;;;8.50;;
55067;SDS011;40965;52.368;9.712;2022-07-23T02:34:10;18.52;;;8.48;;
55067;SDS011;40965;52.368;9.712;2022-07-23T02:36:40;9.30;;;7.85;;
55067;SDS011;40965;52.368;9.712;2022-07-23T02:39:09;9.52;;;7.25;;
55067;SDS011;40965;52.368;9.712;2022-07-23T02:41:36;8.65;;;7.70;;
55067;SDS011;40965;52.368;9.712;2022-07-23T02:44:03;16.73;;;10.25;;
55067;SDS011;40965;52.368;9.712;2022-07-23T02:46:29;18.23;;;8.85;;
55067;SDS011;40965;52.368;9.712;2022-07-23T02:48:59;15.43;;;9.63;;
55067;SDS011;40965;52.368;9.712;2022-07-23T02:51:26;14.02;;;9.57;;
55067;SDS011;40965;52.368;9.712;2022-07-23T02:53:53;16.85;;;8.95;;
55067;SDS011;40965;52.368;9.712;2022-07-23T02:56:19;16.70;;;10.25;;
55067;SDS011;40965;52.368;9.712;2022-07-23T02:58:46;14.75;;;9.02;;
55067;SDS011;40965;52.368;9.712;2022-07-23T03:01:12;11.75;;;8.13;;
55067;SDS011;40965;52.368;9.712;2022-07-23T03:03:41;11.07;;;7.60;;
55067;SDS011;40965;52.368;9.712;2022-07-23T03:06:08;14.00;;;9.15;;
55067;SDS011;40965;52.368;9.712;2022-07-23T03:08:37;17.42;;;9.05;;
55067;SDS011;40965;52.368;9.712;2022-07-23T03:11:03;21.73;;;10.02;;
55067;SDS011;40965;52.368;9.712;2022-07-23T03:13:32;22.42;;;9.88;;
55067;SDS011;40965;52.368;9.712;2022-07-23T03:15:59;20.48;;;11.48;;
55067;SDS011;40965;52.368;9.712;2022-07-23T03:18:28;15.32;;;11.00;;
55067;SDS011;40965;52.368;9.712;2022-07-23T03:20:55;19.23;;;11.30;;
55067;SDS011;40965;52.368;9.712;2022-07-23T03:23:22;19.35;;;11.82;;
55067;SDS011;40965;52.368;9.712;2022-07-23T03:25:48;20.65;;;10.15;;
55067;SDS011;40965;52.368;9.712;2022-07-23T03:28:15;21.33;;;11.75;;
55067;SDS011;40965;52.368;9.712;2022-07-23T03:30:43;14.77;;;9.52;;
55067;SDS011;40965;52.368;9.712;2022-07-23T03:33:12;19.02;;;8.52;;
55067;SDS011;40965;52.368;9.712;2022-07-23T03:35:41;9.20;;;7.72;;
55067;SDS011;40965;52.368;9.712;2022-07-23T03:38:09;10.15;;;6.57;;
55067;SDS011;40965;52.368;9.712;2022-07-23T03:40:36;8.60;;;6.68;;
55067;SDS011;40965;52.368;9.712;2022-07-23T03:43:03;11.40;;;7.78;;
55067;SDS011;40965;52.368;9.712;2022-07-23T03:45:30;13.55;;;6.97;;
55067;SDS011;40965;52.368;9.712;2022-07-23T03:47:58;11.48;;;7.43;;
55067;SDS011;40965;52.368;9.712;2022-07-23T03:50:28;10.18;;;6.35;;
55067;SDS011;40965;52.368;9.712;2022-07-23T03:52:55;9.75;;;7.50;;
55067;SDS011;40965;52.368;9.712;2022-07-23T03:55:22;9.63;;;7.68;;
55067;SDS011;40965;52.368;9.712;2022-07-23T03:57:48;11.18;;;8.73;;
55067;SDS011;40965;52.368;9.712;2022-07-23T04:00:15;15.65;;;9.15;;
55067;SDS011;40965;52.368;9.712;2022-07-23T04:02:42;12.95;;;9.45;;
55067;SDS011;40965;52.368;9.712;2022-07-23T04:05:12;11.63;;;8.15;;
55067;SDS011;40965;52.368;9.712;2022-07-23T04:07:43;10.75;;;8.07;;
55067;SDS011;40965;52.368;9.712;2022-07-23T04:10:09;10.38;;;7.30;;
55067;SDS011;40965;52.368;9.712;2022-07-23T04:12:36;9.20;;;8.30;;
55067;SDS011;40965;52.368;9.712;2022-07-23T04:15:03;11.43;;;7.88;;
55067;SDS011;40965;52.368;9.712;2022-07-23T04:17:44;8.10;;;7.30;;
55067;SDS011;40965;52.368;9.712;2022-07-23T04:20:12;11.40;;;7.82;;
55067;SDS011;40965;52.368;9.712;2022-07-23T04:22:39;12.55;;;8.82;;
55067;SDS011;40965;52.368;9.712;2022-07-23T04:25:05;13.73;;;9.27;;
55067;SDS011;40965;52.368;9.712;2022-07-23T04:27:33;15.73;;;8.23;;
55067;SDS011;40965;52.368;9.712;2022-07-23T04:29:59;12.82;;;7.88;;
55067;SDS011;40965;52.368;9.712;2022-07-23T04:32:26;23.23;;;12.25;;
55067;SDS011;40965;52.368;9.712;2022-07-23T04:34:57;9.63;;;8.63;;
55067;SDS011;40965;52.368;9.712;2022-07-23T04:37:25;9.43;;;7.70;;
55067;SDS011;40965;52.368;9.712;2022-07-23T04:39:52;17.38;;;9.88;;
55067;SDS011;40965;52.368;9.712;2022-07-23T04:42:19;15.30;;;10.43;;
55067;SDS011;40965;52.368;9.712;2022-07-23T04:44:47;30.00;;;13.23;;
55067;SDS011;40965;52.368;9.712;2022-07-23T04:47:16;14.07;;;10.10;;
55067;SDS011;40965;52.368;9.712;2022-07-23T04:49:43;15.07;;;10.25;;
55067;SDS011;40965;52.368;9.712;2022-07-23T04:52:09;10.82;;;8.40;;
55067;SDS011;40965;52.368;9.712;2022-07-23T04:54:36;14.48;;;9.23;;
55067;SDS011;40965;52.368;9.712;2022-07-23T04:57:03;10.90;;;8.60;;
55067;SDS011;40965;52.368;9.712;2022-07-23T04:59:31;12.00;;;9.20;;
55067;SDS011;40965;52.368;9.712;2022-07-23T05:01:57;10.48;;;8.07;;
55067;SDS011;40965;52.368;9.712;2022-07-23T05:04:24;10.35;;;8.18;;
55067;SDS011;40965;52.368;9.712;2022-07-23T05:06:51;10.32;;;8.65;;
55067;SDS011;40965;52.368;9.712;2022-07-23T05:09:17;9.63;;;8.65;;
55067;SDS011;40965;52.368;9.712;2022-07-23T05:11:44;9.18;;;8.27;;
55067;SDS011;40965;52.368;9.712;2022-07-23T05:14:10;11.02;;;8.82;;
55067;SDS011;40965;52.368;9.712;2022-07-23T05:16:40;12.40;;;9.02;;
55067;SDS011;40965;52.368;9.712;2022-07-23T05:19:07;11.95;;;8.30;;
55067;SDS011;40965;52.368;9.712;2022-07-23T05:21:34;11.43;;;8.85;;
55067;SDS011;40965;52.368;9.712;2022-07-23T05:24:01;13.07;;;9.02;;
55067;SDS011;40965;52.368;9.712;2022-07-23T05:26:28;8.48;;;7.68;;
55067;SDS011;40965;52.368;9.712;2022-07-23T05:28:54;10.45;;;8.60;;
55067;SDS011;40965;52.368;9.712;2022-07-23T05:31:21;10.80;;;8.00;;
55067;SDS011;40965;52.368;9.712;2022-07-23T05:33:53;7.57;;;6.88;;
55067;SDS011;40965;52.368;9.712;2022-07-23T05:36:20;9.82;;;8.73;;
55067;SDS011;40965;52.368;9.712;2022-07-23T05:38:47;10.02;;;8.82;;
55067;SDS011;40965;52.368;9.712;2022-07-23T05:41:13;11.38;;;8.73;;
55067;SDS011;40965;52.368;9.712;2022-07-23T05:43:42;12.13;;;8.57;;
55067;SDS011;40965;52.368;9.712;2022-07-23T05:46:09;12.75;;;9.18;;
55067;SDS011;40965;52.368;9.712;2022-07-23T05:48:36;10.40;;;8.45;;
55067;SDS011;40965;52.368;9.712;2022-07-23T05:51:03;8.50;;;7.60;;
55067;SDS011;40965;52.368;9.712;2022-07-23T05:53:32;10.50;;;8.13;;
55067;SDS011;40965;52.368;9.712;2022-07-23T05:55:59;9.77;;;7.72;;
55067;SDS011;40965;52.368;9.712;2022-07-23T05:58:27;10.75;;;7.45;;
55067;SDS011;40965;52.368;9.712;2022-07-23T06:00:53;11.30;;;8.30;;
55067;SDS011;40965;52.368;9.712;2022-07-23T06:03:20;11.10;;;9.20;;
55067;SDS011;40965;52.368;9.712;2022-07-23T06:05:47;9.32;;;8.00;;
55067;SDS011;40965;52.368;9.712;2022-07-23T06:08:16;10.55;;;8.15;;
55067;SDS011;40965;52.368;9.712;2022-07-23T06:10:43;12.90;;;8.65;;
55067;SDS011;40965;52.368;9.712;2022-07-23T06:13:10;8.25;;;7.43;;
55067;SDS011;40965;52.368;9.712;2022-07-23T06:15:37;10.43;;;7.78;;
55067;SDS011;40965;52.368;9.712;2022-07-23T06:18:04;11.38;;;9.32;;
55067;SDS011;40965;52.368;9.712;2022-07-23T06:20:34;11.25;;;8.52;;
55067;SDS011;40965;52.368;9.712;2022-07-23T06:23:00;11.00;;;7.13;;
55067;SDS011;40965;52.368;9.712;2022-07-23T06:25:27;8.55;;;7.70;;
55067;SDS011;40965;52.368;9.712;2022-07-23T06:27:54;14.15;;;7.95;;
55067;SDS011;40965;52.368;9.712;2022-07-23T06:30:20;11.50;;;8.35;;
55067;SDS011;40965;52.368;9.712;2022-07-23T06:32:48;13.65;;;7.75;;
55067;SDS011;40965;52.368;9.712;2022-07-23T06:35:18;11.82;;;7.97;;
55067;SDS011;40965;52.368;9.712;2022-07-23T06:37:44;8.77;;;6.32;;
55067;SDS011;40965;52.368;9.712;2022-07-23T06:40:12;8.73;;;7.10;;
55067;SDS011;40965;52.368;9.712;2022-07-23T06:42:39;7.50;;;6.28;;
55067;SDS011;40965;52.368;9.712;2022-07-23T06:45:06;8.23;;;6.07;;
55067;SDS011;40965;52.368;9.712;2022-07-23T06:47:33;7.80;;;6.63;;
55067;SDS011;40965;52.368;9.712;2022-07-23T06:50:00;8.48;;;6.35;;
55067;SDS011;40965;52.368;9.712;2022-07-23T06:52:27;7.53;;;6.43;;
55067;SDS011;40965;52.368;9.712;2022-07-23T06:54:54;13.13;;;6.70;;
55067;SDS011;40965;52.368;9.712;2022-07-23T06:57:20;10.27;;;7.40;;
55067;SDS011;40965;52.368;9.712;2022-07-23T06:59:47;8.77;;;6.68;;
55067;SDS011;40965;52.368;9.712;2022-07-23T07:02:16;6.38;;;5.53;;
55067;SDS011;40965;52.368;9.712;2022-07-23T07:04:43;8.23;;;6.68;;
55067;SDS011;40965;52.368;9.712;2022-07-23T07:07:10;7.25;;;5.65;;
55067;SDS011;40965;52.368;9.712;2022-07-23T07:09:40;7.28;;;6.40;;
55067;SDS011;40965;52.368;9.712;2022-07-23T07:12:14;7.18;;;5.88;;
55067;SDS011;40965;52.368;9.712;2022-07-23T07:14:40;6.90;;;6.05;;
55067;SDS011;40965;52.368;9.712;2022-07-23T07:17:07;11.50;;;5.70;;
55067;SDS011;40965;52.368;9.712;2022-07-23T07:19:37;5.43;;;4.95;;
55067;SDS011;40965;52.368;9.712;2022-07-23T07:22:03;8.25;;;5.55;;
55067;SDS011;40965;52.368;9.712;2022-07-23T07:24:30;4.97;;;4.57;;
55067;SDS011;40965;52.368;9.712;2022-07-23T07:26:57;8.82;;;5.03;;
55067;SDS011;40965;52.368;9.712;2022-07-23T07:29:26;9.48;;;5.13;;
55067;SDS011;40965;52.368;9.712;2022-07-23T07:31:53;5.00;;;4.43;;
55067;SDS011;40965;52.368;9.712;2022-07-23T07:34:20;7.18;;;4.60;;
55067;SDS011;40965;52.368;9.712;2022-07-23T07:36:47;4.90;;;4.28;;
55067;SDS011;40965;52.368;9.712;2022-07-23T07:39:14;3.38;;;3.08;;
55067;SDS011;40965;52.368;9.712;2022-07-23T07:41:41;4.80;;;3.30;;
55067;SDS011;40965;52.368;9.712;2022-07-23T07:44:08;4.70;;;3.15;;
55067;SDS011;40965;52.368;9.712;2022-07-23T07:46:35;5.63;;;3.50;;
55067;SDS011;40965;52.368;9.712;2022-07-23T07:49:04;3.33;;;2.85;;
55067;SDS011;40965;52.368;9.712;2022-07-23T07:51:31;2.38;;;2.17;;
55067;SDS011;40965;52.368;9.712;2022-07-23T07:53:58;3.63;;;2.50;;
55067;SDS011;40965;52.368;9.712;2022-07-23T07:56:26;1.90;;;1.77;;
55067;SDS011;40965;52.368;9.712;2022-07-23T07:59:06;1.92;;;1.75;;
55067;SDS011;40965;52.368;9.712;2022-07-23T08:01:33;2.47;;;2.20;;
55067;SDS011;40965;52.368;9.712;2022-07-23T08:04:02;2.30;;;2.08;;
55067;SDS011;40965;52.368;9.712;2022-07-23T08:06:28;3.08;;;2.30;;
55067;SDS011;40965;52.368;9.712;2022-07-23T08:09:03;4.53;;;1.33;;
55067;SDS011;40965;52.368;9.712;2022-07-23T08:11:33;3.40;;;1.77;;
55067;SDS011;40965;52.368;9.712;2022-07-23T08:14:02;1.38;;;1.38;;
55067;SDS011;40965;52.368;9.712;2022-07-23T08:16:29;2.35;;;1.35;;
55067;SDS011;40965;52.368;9.712;2022-07-23T08:18:58;1.42;;;1.30;;
55067;SDS011;40965;52.368;9.712;2022-07-23T08:21:24;4.20;;;1.48;;
55067;SDS011;40965;52.368;9.712;2022-07-23T08:23:53;2.95;;;1.98;;
55067;SDS011;40965;52.368;9.712;2022-07-23T08:26:21;2.75;;;1.60;;
55067;SDS011;40965;52.368;9.712;2022-07-23T08:28:50;2.97;;;1.95;;
55067;SDS011;40965;52.368;9.712;2022-07-23T08:31:17;2.47;;;1.90;;
55067;SDS011;40965;52.368;9.712;2022-07-23T08:33:47;2.88;;;1.50;;
55067;SDS011;40965;52.368;9.712;2022-07-23T08:36:17;3.85;;;1.70;;
55067;SDS011;40965;52.368;9.712;2022-07-23T08:38:46;4.38;;;1.23;;
55067;SDS011;40965;52.368;9.712;2022-07-23T08:41:12;4.13;;;1.50;;
55067;SDS011;40965;52.368;9.712;2022-07-23T08:43:42;1.48;;;1.05;;
55067;SDS011;40965;52.368;9.712;2022-07-23T08:46:13;3.30;;;1.27;;
55067;SDS011;40965;52.368;9.712;2022-07-23T08:48:46;2.17;;;1.00;;
55067;SDS011;40965;52.368;9.712;2022-07-23T08:51:15;2.58;;;1.67;;
55067;SDS011;40965;52.368;9.712;2022-07-23T08:53:43;1.77;;;1.30;;
55067;SDS011;40965;52.368;9.712;2022-07-23T08:56:10;1.42;;;1.02;;
55067;SDS011;40965;52.368;9.712;2022-07-23T09:01:10;2.70;;;0.90;;
55067;SDS011;40965;52.368;9.712;2022-07-23T09:03:42;1.00;;;0.88;;
55067;SDS011;40965;52.368;9.712;2022-07-23T09:06:11;1.92;;;1.10;;
55067;SDS011;40965;52.368;9.712;2022-07-23T09:08:39;2.17;;;1.02;;
55067;SDS011;40965;52.368;9.712;2022-07-23T09:11:09;2.30;;;1.33;;
55067;SDS011;40965;52.368;9.712;2022-07-23T09:16:28;3.92;;;1.90;;
55067;SDS011;40965;52.368;9.712;2022-07-23T09:19:03;5.25;;;1.95;;
55067;SDS011;40965;52.368;9.712;2022-07-23T09:21:33;4.22;;;1.27;;
55067;SDS011;40965;52.368;9.712;2022-07-23T09:24:05;3.03;;;1.35;;
55067;SDS011;40965;52.368;9.712;2022-07-23T09:26:41;2.20;;;1.25;;
55067;SDS011;40965;52.368;9.712;2022-07-23T09:29:20;1.92;;;1.15;;
55067;SDS011;40965;52.368;9.712;2022-07-23T09:34:29;4.28;;;1.02;;
55067;SDS011;40965;52.368;9.712;2022-07-23T09:37:10;3.25;;;1.80;;
55067;SDS011;40965;52.368;9.712;2022-07-23T09:39:39;1.92;;;1.67;;
55067;SDS011;40965;52.368;9.712;2022-07-23T09:44:54;1.27;;;1.15;;
55067;SDS011;40965;52.368;9.712;2022-07-23T09:47:24;1.10;;;1.00;;
55067;SDS011;40965;52.368;9.712;2022-07-23T09:52:31;2.20;;;1.08;;
55067;SDS011;40965;52.368;9.712;2022-07-23T09:55:10;3.50;;;1.25;;
55067;SDS011;40965;52.368;9.712;2022-07-23T09:57:39;2.17;;;1.40;;
55067;SDS011;40965;52.368;9.712;2022-07-23T10:00:09;1.90;;;1.30;;
55067;SDS011;40965;52.368;9.712;2022-07-23T10:02:37;3.05;;;1.42;;
55067;SDS011;40965;52.368;9.712;2022-07-23T10:05:13;2.20;;;1.02;;
55067;SDS011;40965;52.368;9.712;2022-07-23T10:07:40;1.90;;;0.93;;
55067;SDS011;40965;52.368;9.712;2022-07-23T10:10:09;4.25;;;1.52;;
55067;SDS011;40965;52.368;9.712;2022-07-23T10:12:41;0.98;;;0.88;;
55067;SDS011;40965;52.368;9.712;2022-07-23T10:15:27;1.40;;;1.00;;
55067;SDS011;40965;52.368;9.712;2022-07-23T10:17:55;1.70;;;0.73;;
55067;SDS011;40965;52.368;9.712;2022-07-23T10:20:21;0.82;;;0.65;;
55067;SDS011;40965;52.368;9.712;2022-07-23T10:26:03;3.40;;;1.40;;
55067;SDS011;40965;52.368;9.712;2022-07-23T10:28:43;2.75;;;1.35;;
55067;SDS011;40965;52.368;9.712;2022-07-23T10:37:17;1.75;;;1.08;;
55067;SDS011;40965;52.368;9.712;2022-07-23T10:40:17;2.40;;;1.27;;
55067;SDS011;40965;52.368;9.712;2022-07-23T10:42:48;1.92;;;1.10;;
55067;SDS011;40965;52.368;9.712;2022-07-23T10:45:22;4.70;;;1.17;;
55067;SDS011;40965;52.368;9.712;2022-07-23T10:48:17;2.58;;;0.82;;
55067;SDS011;40965;52.368;9.712;2022-07-23T10:59:26;1.30;;;0.70;;
55067;SDS011;40965;52.368;9.712;2022-07-23T11:01:54;1.38;;;0.68;;
55067;SDS011;40965;52.368;9.712;2022-07-23T11:04:51;2.30;;;0.90;;
55067;SDS011;40965;52.368;9.712;2022-07-23T11:07:19;2.70;;;0.85;;
55067;SDS011;40965;52.368;9.712;2022-07-23T11:09:46;1.33;;;0.80;;
55067;SDS011;40965;52.368;9.712;2022-07-23T11:17:27;2.92;;;0.80;;
55067;SDS011;40965;52.368;9.712;2022-07-23T11:22:46;1.73;;;0.63;;
55067;SDS011;40965;52.368;9.712;2022-07-23T11:27:49;1.90;;;0.70;;
55067;SDS011;40965;52.368;9.712;2022-07-23T11:35:44;0.40;;;0.40;;
55067;SDS011;40965;52.368;9.712;2022-07-23T11:38:20;0.77;;;0.47;;
55067;SDS011;40965;52.368;9.712;2022-07-23T11:40:54;0.40;;;0.40;;
55067;SDS011;40965;52.368;9.712;2022-07-23T11:43:25;1.33;;;0.38;;
55067;SDS011;40965;52.368;9.712;2022-07-23T11:45:54;1.00;;;0.50;;
55067;SDS011;40965;52.368;9.712;2022-07-23T11:48:29;1.75;;;0.60;;
55067;SDS011;40965;52.368;9.712;2022-07-23T11:51:00;0.57;;;0.30;;
55067;SDS011;40965;52.368;9.712;2022-07-23T11:53:28;1.70;;;1.02;;
55067;SDS011;40965;52.368;9.712;2022-07-23T11:56:05;2.10;;;0.70;;
55067;SDS011;40965;52.368;9.712;2022-07-23T11:58:36;0.75;;;0.52;;
55067;SDS011;40965;52.368;9.712;2022-07-23T12:01:22;0.98;;;0.43;;
55067;SDS011;40965;52.368;9.712;2022-07-23T12:03:50;2.20;;;0.40;;
55067;SDS011;40965;52.368;9.712;2022-07-23T12:06:18;1.65;;;0.60;;
55067;SDS011;40965;52.368;9.712;2022-07-23T12:08:46;0.47;;;0.47;;
55067;SDS011;40965;52.368;9.712;2022-07-23T12:11:15;1.58;;;0.35;;
55067;SDS011;40965;52.368;9.712;2022-07-23T12:13:55;2.28;;;0.40;;
55067;SDS011;40965;52.368;9.712;2022-07-23T12:16:35;1.83;;;0.30;;
55067;SDS011;40965;52.368;9.712;2022-07-23T12:19:05;0.52;;;0.30;;
55067;SDS011;40965;52.368;9.712;2022-07-23T12:21:32;0.98;;;0.45;;
55067;SDS011;40965;52.368;9.712;2022-07-23T12:24:07;0.47;;;0.40;;
55067;SDS011;40965;52.368;9.712;2022-07-23T12:26:35;0.98;;;0.50;;
55067;SDS011;40965;52.368;9.712;2022-07-23T12:29:02;0.55;;;0.38;;
55067;SDS011;40965;52.368;9.712;2022-07-23T12:31:32;0.75;;;0.52;;
55067;SDS011;40965;52.368;9.712;2022-07-23T12:34:00;0.75;;;0.40;;
55067;SDS011;40965;52.368;9.712;2022-07-23T12:36:36;0.40;;;0.40;;
55067;SDS011;40965;52.368;9.712;2022-07-23T12:39:08;0.30;;;0.30;;
55067;SDS011;40965;52.368;9.712;2022-07-23T12:42:11;1.85;;;0.40;;
55067;SDS011;40965;52.368;9.712;2022-07-23T12:45:02;0.90;;;0.40;;
55067;SDS011;40965;52.368;9.712;2022-07-23T12:50:34;1.80;;;0.38;;
55067;SDS011;40965;52.368;9.712;2022-07-23T12:53:14;1.30;;;0.30;;
55067;SDS011;40965;52.368;9.712;2022-07-23T12:55:44;0.70;;;0.20;;
55067;SDS011;40965;52.368;9.712;2022-07-23T12:58:27;1.27;;;0.20;;
55067;SDS011;40965;52.368;9.712;2022-07-23T13:06:35;0.30;;;0.30;;
55067;SDS011;40965;52.368;9.712;2022-07-23T13:09:08;0.25;;;0.25;;
55067;SDS011;40965;52.368;9.712;2022-07-23T13:11:46;0.50;;;0.50;;
55067;SDS011;40965;52.368;9.712;2022-07-23T13:14:24;1.25;;;0.20;;
55067;SDS011;40965;52.368;9.712;2022-07-23T13:16:52;0.60;;;0.43;;
55067;SDS011;40965;52.368;9.712;2022-07-23T13:19:24;1.15;;;0.22;;
55067;SDS011;40965;52.368;9.712;2022-07-23T13:21:54;0.95;;;0.32;;
55067;SDS011;40965;52.368;9.712;2022-07-23T13:24:24;1.15;;;0.40;;
55067;SDS011;40965;52.368;9.712;2022-07-23T13:26:51;1.73;;;0.50;;
55067;SDS011;40965;52.368;9.712;2022-07-23T13:29:28;0.47;;;0.20;;
55067;SDS011;40965;52.368;9.712;2022-07-23T13:31:58;0.43;;;0.10;;
55067;SDS011;40965;52.368;9.712;2022-07-23T13:34:25;1.58;;;0.30;;
55067;SDS011;40965;52.368;9.712;2022-07-23T13:37:09;0.95;;;0.43;;
55067;SDS011;40965;52.368;9.712;2022-07-23T13:39:52;1.10;;;0.40;;
55067;SDS011;40965;52.368;9.712;2022-07-23T13:42:19;0.60;;;0.45;;
55067;SDS011;40965;52.368;9.712;2022-07-23T13:44:46;3.83;;;0.30;;
55067;SDS011;40965;52.368;9.712;2022-07-23T13:47:13;2.15;;;0.38;;
55067;SDS011;40965;52.368;9.712;2022-07-23T13:49:40;1.70;;;0.20;;
55067;SDS011;40965;52.368;9.712;2022-07-23T13:52:08;0.50;;;0.25;;
55067;SDS011;40965;52.368;9.712;2022-07-23T13:54:35;0.68;;;0.50;;
55067;SDS011;40965;52.368;9.712;2022-07-23T13:57:03;0.45;;;0.30;;
55067;SDS011;40965;52.368;9.712;2022-07-23T13:59:33;2.17;;;0.35;;
55067;SDS011;40965;52.368;9.712;2022-07-23T14:02:04;0.63;;;0.25;;
55067;SDS011;40965;52.368;9.712;2022-07-23T14:04:33;1.45;;;0.20;;
55067;SDS011;40965;52.368;9.712;2022-07-23T14:07:00;0.52;;;0.52;;
55067;SDS011;40965;52.368;9.712;2022-07-23T14:09:30;0.22;;;0.20;;
55067;SDS011;40965;52.368;9.712;2022-07-23T14:12:02;1.48;;;0.20;;
55067;SDS011;40965;52.368;9.712;2022-07-23T14:14:31;1.65;;;0.20;;
55067;SDS011;40965;52.368;9.712;2022-07-23T14:17:05;1.95;;;0.20;;
55067;SDS011;40965;52.368;9.712;2022-07-23T14:19:32;0.38;;;0.32;;
55067;SDS011;40965;52.368;9.712;2022-07-23T14:22:01;0.80;;;0.30;;
55067;SDS011;40965;52.368;9.712;2022-07-23T14:24:28;1.33;;;0.22;;
55067;SDS011;40965;52.368;9.712;2022-07-23T14:27:04;2.92;;;0.40;;
55067;SDS011;40965;52.368;9.712;2022-07-23T14:29:34;1.73;;;0.60;;
55067;SDS011;40965;52.368;9.712;2022-07-23T14:32:01;1.35;;;0.65;;
55067;SDS011;40965;52.368;9.712;2022-07-23T14:34:38;2.08;;;0.30;;
55067;SDS011;40965;52.368;9.712;2022-07-23T14:37:05;0.82;;;0.30;;
55067;SDS011;40965;52.368;9.712;2022-07-23T14:39:32;0.52;;;0.30;;
55067;SDS011;40965;52.368;9.712;2022-07-23T14:41:59;1.27;;;0.30;;
55067;SDS011;40965;52.368;9.712;2022-07-23T14:44:26;0.20;;;0.20;;
55067;SDS011;40965;52.368;9.712;2022-07-23T14:46:53;0.00;;;0.00;;
55067;SDS011;40965;52.368;9.712;2022-07-23T14:49:20;1.02;;;0.25;;
55067;SDS011;40965;52.368;9.712;2022-07-23T14:51:46;2.28;;;0.20;;
55067;SDS011;40965;52.368;9.712;2022-07-23T14:54:17;1.45;;;0.30;;
55067;SDS011;40965;52.368;9.712;2022-07-23T14:56:44;0.95;;;0.30;;
55067;SDS011;40965;52.368;9.712;2022-07-23T14:59:12;1.33;;;0.40;;
55067;SDS011;40965;52.368;9.712;2022-07-23T15:01:39;0.93;;;0.20;;
55067;SDS011;40965;52.368;9.712;2022-07-23T15:04:09;0.65;;;0.30;;
55067;SDS011;40965;52.368;9.712;2022-07-23T15:06:38;0.35;;;0.10;;
55067;SDS011;40965;52.368;9.712;2022-07-23T15:09:06;1.05;;;0.20;;
55067;SDS011;40965;52.368;9.712;2022-07-23T15:11:34;0.13;;;0.13;;
55067;SDS011;40965;52.368;9.712;2022-07-23T15:14:12;0.40;;;0.40;;
55067;SDS011;40965;52.368;9.712;2022-07-23T15:16:40;2.22;;;0.70;;
55067;SDS011;40965;52.368;9.712;2022-07-23T15:19:06;0.95;;;0.35;;
55067;SDS011;40965;52.368;9.712;2022-07-23T15:21:33;0.30;;;0.30;;
55067;SDS011;40965;52.368;9.712;2022-07-23T15:24:00;0.80;;;0.30;;
55067;SDS011;40965;52.368;9.712;2022-07-23T15:26:28;0.50;;;0.30;;
55067;SDS011;40965;52.368;9.712;2022-07-23T15:28:56;0.73;;;0.30;;
55067;SDS011;40965;52.368;9.712;2022-07-23T15:31:24;2.55;;;0.43;;
55067;SDS011;40965;52.368;9.712;2022-07-23T15:33:56;1.48;;;0.43;;
55067;SDS011;40965;52.368;9.712;2022-07-23T15:36:24;1.55;;;0.20;;
55067;SDS011;40965;52.368;9.712;2022-07-23T15:38:51;0.90;;;0.30;;
55067;SDS011;40965;52.368;9.712;2022-07-23T15:41:18;1.80;;;0.20;;
55067;SDS011;40965;52.368;9.712;2022-07-23T15:43:48;1.65;;;0.10;;
55067;SDS011;40965;52.368;9.712;2022-07-23T15:46:19;0.30;;;0.30;;
55067;SDS011;40965;52.368;9.712;2022-07-23T15:48:49;2.67;;;0.22;;
55067;SDS011;40965;52.368;9.712;2022-07-23T15:51:21;0.20;;;0.20;;